Flight Track Log - Related Links

Times and Time Zones

All times are in EDT time to prevent confusion due to time zone crossing. See the ASQ4674 flight status page for this flight to view local times or setup timezone preferences in your user account.

Time Position Orientation Groundspeed Altitude Reporting Facility
EDT Latitude Longitude Course Direction KTS MPH feet Rate Location/Type
Sat 07:08:25 PM 29.9783 -95.2958 334° Northwest 163 188 700  Level Houston Center
Sat 07:09:14 PM 30.0128 -95.2819 19° North 226 260 1,800 1,636 Climbing Houston Center
Sat 07:10:15 PM 30.0906 -95.3061 345° North 274 315 3,700 1,296 Climbing Houston Center
Sat 07:11:00 PM 30.2534 -95.4896 332° Northwest  Level FlightAware Approximate
Sat 07:11:19 PM 30.1603 -95.3292 344° North 269 310 4,500  Level Houston Center
Sat 07:12:00 PM 30.3420 -95.5450 332° Northwest  Level FlightAware Approximate
Sat 07:12:21 PM 30.2211 -95.3831 323° Northwest 275 316 7,000  Level Houston Center
Sat 07:13:00 PM 30.4327 -95.5959 334° Northwest  Level FlightAware Approximate
Sat 07:13:23 PM 30.2836 -95.4372 323° Northwest 279 321 9,100  Level Houston Center
Sat 07:14:24 PM 30.3628 -95.5033 324° Northwest 289 333 11,300 1,756 Climbing Houston Center
Sat 07:15:26 PM 30.4339 -95.5631 324° Northwest 308 354 12,700 1,220 Climbing Houston Center
Sat 07:16:27 PM 30.5131 -95.6258 326° Northwest 338 389 13,800 878 Climbing Houston Center
Sat 07:17:29 PM 30.6028 -95.6853 330° Northwest 387 445 14,500 823 Climbing Houston Center
Sat 07:18:31 PM 30.7081 -95.7256 342° North 415 478 15,500 976 Climbing Houston Center
Sat 07:19:32 PM 30.8169 -95.7450 351° North 410 472 16,500 1,122 Climbing Houston Center
Sat 07:20:34 PM 30.9258 -95.7633 352° North 406 467 17,800 1,366 Climbing Houston Center
Sat 07:21:35 PM 31.0319 -95.7808 352° North 403 464 19,300 1,610 Climbing Houston Center
Sat 07:22:37 PM 31.1542 -95.8031 351° North 374 430 21,100 1,610 Climbing Houston Center
Sat 07:23:38 PM 31.2556 -95.8203 352° North 368 423 22,600 1,463 Climbing Houston Center
Sat 07:24:40 PM 31.3525 -95.8378 351° North 353 406 24,100 1,463 Climbing Houston Center
Sat 07:25:41 PM 31.4492 -95.8544 352° North 348 400 25,600 1,463 Climbing Houston Center
Sat 07:26:43 PM 31.5436 -95.8697 352° North 342 394 27,100 1,317 Climbing Houston Center
Sat 07:27:44 PM 31.6375 -95.8869 351° North 340 391 28,300 1,073 Climbing Houston Center
Sat 07:28:46 PM 31.7319 -95.9033 352° North 341 392 29,300 927 Climbing Houston Center
Sat 07:29:47 PM 31.8306 -95.9211 351° North 352 405 30,200 878 Climbing Houston Center
Sat 07:30:49 PM 31.9306 -95.9389 351° North 359 413 31,100 878 Climbing Houston Center
Sat 07:31:50 PM 32.0325 -95.9561 352° North 366 421 32,000 976 Climbing Houston Center
Sat 07:32:52 PM 32.1553 -95.9797 351° North 369 425 33,100 976 Climbing Houston Center
Sat 07:33:53 PM 32.2572 -95.9978 351° North 370 426 34,000 878 Climbing Houston Center
Sat 07:34:55 PM 32.3606 -96.0158 352° North 371 427 34,900 451 Climbing Houston Center
Sat 07:36:06 PM 32.4836 -96.0392 351° North 373 429 35,000 46 Climbing Fort Worth Center
Sat 07:37:06 PM 32.5944 -96.0572 352° North 378 435 35,000  Level Fort Worth Center
Sat 07:38:06 PM 32.7114 -96.0800 351° North 396 456 35,000  Level Fort Worth Center
Sat 07:39:06 PM 32.8308 -96.1031 351° North 416 479 35,000  Level Fort Worth Center
Sat 07:40:06 PM 32.9542 -96.1261 351° North 435 501 35,000  Level Fort Worth Center
Sat 07:41:06 PM 33.0775 -96.1467 352° North 446 513 35,000  Level Fort Worth Center
Sat 07:42:06 PM 33.2031 -96.1697 351° North 451 519 35,000  Level Fort Worth Center
Sat 07:43:06 PM 33.3264 -96.1928 351° North 446 513 35,000  Level Fort Worth Center
Sat 07:44:06 PM 33.4372 -96.2136 351° North 446 513 35,000  Level Fort Worth Center
Sat 07:45:06 PM 33.5564 -96.2269 355° North 446 513 35,000  Level Fort Worth Center
Sat 07:46:06 PM 33.6772 -96.2078 North 434 499 35,000  Level Fort Worth Center
Sat 07:47:06 PM 33.7958 -96.1861 North 434 499 35,000  Level Fort Worth Center
Sat 07:48:06 PM 33.9167 -96.1694 North 434 499 35,000  Level Fort Worth Center
Sat 07:49:06 PM 34.0375 -96.1503 North 434 499 35,000  Level Fort Worth Center
Sat 07:50:06 PM 34.1625 -96.1283 North 423 487 35,000  Level Fort Worth Center
Sat 07:51:06 PM 34.2792 -96.1092 North 417 480 35,000  Level Fort Worth Center
Sat 07:52:06 PM 34.3981 -96.0897 North 422 486 35,000  Level Fort Worth Center
Sat 07:53:06 PM 34.5167 -96.0678 North 427 491 35,000  Level Fort Worth Center
Sat 07:54:06 PM 34.6353 -96.0481 North 427 491 35,000  Level Fort Worth Center
Sat 07:55:06 PM 34.7542 -96.0286 North 427 491 35,000  Level Fort Worth Center
Sat 07:56:06 PM 34.8708 -96.0089 North 427 491 35,000  Level Fort Worth Center
Sat 07:58:06 PM 35.0775 -95.8778 27° Northeast 432 497 35,000  Level Kansas City Center
Sat 07:59:08 PM 35.1789 -95.7961 33° Northeast 435 501 35,000  Level Kansas City Center
Sat 08:00:09 PM 35.2797 -95.7169 33° Northeast 438 504 35,000  Level Kansas City Center
Sat 08:01:11 PM 35.3814 -95.6358 33° Northeast 437 503 35,000  Level Kansas City Center
Sat 08:02:12 PM 35.4833 -95.5536 33° Northeast 437 503 35,000  Level Kansas City Center
Sat 08:03:14 PM 35.6050 -95.4586 32° Northeast 434 499 35,000  Level Kansas City Center
Sat 08:04:15 PM 35.7069 -95.3758 33° Northeast 435 501 35,000  Level Kansas City Center
Sat 08:05:17 PM 35.8078 -95.2928 34° Northeast 436 502 35,000  Level Kansas City Center
Sat 08:06:18 PM 35.9094 -95.2086 34° Northeast 438 504 35,000  Level Kansas City Center
Sat 08:07:20 PM 36.0106 -95.1247 34° Northeast 439 505 35,000  Level Kansas City Center
Sat 08:08:21 PM 36.1122 -95.0422 33° Northeast 440 506 35,000  Level Kansas City Center
Sat 08:09:22 PM 36.2144 -94.9578 34° Northeast 445 512 35,000  Level Kansas City Center
Sat 08:10:24 PM 36.3367 -94.8561 34° Northeast 445 512 35,000  Level Kansas City Center
Sat 08:11:25 PM 36.4389 -94.7728 33° Northeast 443 510 35,000  Level Kansas City Center
Sat 08:12:27 PM 36.5425 -94.6892 33° Northeast 444 511 35,000  Level Kansas City Center
Sat 08:13:28 PM 36.6456 -94.6025 34° Northeast 447 514 35,000  Level Kansas City Center
Sat 08:14:30 PM 36.7483 -94.5161 34° Northeast 446 513 35,000  Level Kansas City Center
Sat 08:15:31 PM 36.8497 -94.4294 34° Northeast 444 511 35,000  Level Kansas City Center
Sat 08:16:32 PM 36.9453 -94.3339 39° Northeast 440 506 35,000  Level Kansas City Center
Sat 08:17:34 PM 37.0450 -94.2367 38° Northeast 450 518 35,000  Level Kansas City Center
Sat 08:18:35 PM 37.1444 -94.1400 38° Northeast 452 520 35,000  Level Kansas City Center
Sat 08:19:37 PM 37.2597 -94.0286 38° Northeast 453 521 35,000  Level Kansas City Center
Sat 08:20:38 PM 37.3594 -93.9283 39° Northeast 455 524 35,000  Level Kansas City Center
Sat 08:21:39 PM 37.4600 -93.8317 37° Northeast 451 519 35,000  Level Kansas City Center
Sat 08:22:41 PM 37.5611 -93.7308 38° Northeast 457 526 35,000  Level Kansas City Center
Sat 08:23:42 PM 37.6614 -93.6300 39° Northeast 458 527 35,000  Level Kansas City Center
Sat 08:24:43 PM 37.7569 -93.5281 40° Northeast 452 520 35,000  Level Kansas City Center
Sat 08:25:45 PM 37.8583 -93.4264 38° Northeast 458 527 35,000  Level Kansas City Center
Sat 08:26:46 PM 37.9600 -93.3242 38° Northeast 462 532 35,000  Level Kansas City Center
Sat 08:27:47 PM 38.0614 -93.2211 39° Northeast 463 533 35,000  Level Kansas City Center
Sat 08:28:48 PM 38.1856 -93.0953 39° Northeast 470 541 35,000  Level Kansas City Center
Sat 08:29:50 PM 38.2908 -92.9906 38° Northeast 473 544 35,000  Level Kansas City Center
Sat 08:30:51 PM 38.3933 -92.8833 39° Northeast 473 544 35,000  Level Kansas City Center
Sat 08:31:52 PM 38.4972 -92.7767 39° Northeast 474 545 35,000  Level Kansas City Center
Sat 08:32:53 PM 38.6003 -92.6706 39° Northeast 473 544 35,000  Level Kansas City Center
Sat 08:33:55 PM 38.7019 -92.5642 39° Northeast 470 541 35,000  Level Kansas City Center
Sat 08:34:56 PM 38.8047 -92.4556 39° Northeast 474 545 35,000  Level Kansas City Center
Sat 08:35:57 PM 38.9089 -92.3472 39° Northeast 477 549 35,000  Level Kansas City Center
Sat 08:36:59 PM 39.0122 -92.2386 39° Northeast 478 550 35,000  Level Kansas City Center
Sat 08:38:00 PM 39.1150 -92.1250 41° Northeast 482 555 35,000  Level Kansas City Center
Sat 08:39:01 PM 39.1947 -91.9919 52° Northeast 468 539 35,000  Level Kansas City Center
Sat 08:40:03 PM 39.2664 -91.8531 56° Northeast 468 539 35,000  Level Kansas City Center
Sat 08:41:04 PM 39.3317 -91.7175 58° Northeast 454 522 35,000  Level Kansas City Center
Sat 08:42:07 PM 39.4050 -91.5722 57° Northeast 455 524 35,000  Level Kansas City Center
Sat 08:43:07 PM 39.4731 -91.4314 58° Northeast 460 529 35,000  Level Kansas City Center
Sat 08:44:08 PM 39.5433 -91.2897 57° Northeast 465 535 35,000  Level Kansas City Center
Sat 08:45:10 PM 39.6117 -91.1489 58° Northeast 463 533 35,000  Level Kansas City Center
Sat 08:46:11 PM 39.6933 -90.9800 58° Northeast 460 529 35,000  Level Kansas City Center
Sat 08:47:12 PM 39.7575 -90.8483 58° Northeast 442 509 35,000  Level Kansas City Center
Sat 08:48:14 PM 39.8208 -90.7139 58° Northeast 453 521 35,000  Level Kansas City Center
Sat 08:49:15 PM 39.8872 -90.5736 58° Northeast 456 525 35,000  Level Kansas City Center
Sat 08:50:16 PM 39.9544 -90.4344 58° Northeast 456 525 35,000  Level Kansas City Center
Sat 08:51:17 PM 40.0186 -90.2942 59° Northeast 454 522 35,000  Level Kansas City Center
Sat 08:52:19 PM 40.0839 -90.1533 59° Northeast 454 522 35,000  Level Kansas City Center
Sat 08:53:20 PM 40.1603 -89.9836 59° Northeast 457 526 35,000  Level Kansas City Center
Sat 08:54:21 PM 40.2261 -89.8436 58° Northeast 453 521 35,000  Level Kansas City Center
Sat 08:55:23 PM 40.2911 -89.7047 58° Northeast 449 517 35,000  Level Kansas City Center
Sat 08:56:24 PM 40.3544 -89.5650 59° Northeast 449 517 35,000  Level Kansas City Center
Sat 08:57:25 PM 40.4181 -89.4247 59° Northeast 451 519 35,000  Level Kansas City Center
Sat 08:58:27 PM 40.4825 -89.2839 59° Northeast 452 520 35,000  Level Kansas City Center
Sat 08:59:28 PM 40.5458 -89.1442 59° Northeast 450 518 35,000  Level Kansas City Center
Sat 09:00:29 PM 40.6236 -88.9764 59° Northeast 450 518 35,000  Level Kansas City Center
Sat 09:01:31 PM 40.6864 -88.8331 60° Northeast 452 520 35,000  Level Kansas City Center
Sat 09:02:44 PM 40.7608 -88.6697 59° Northeast 445 512 35,000  Level Chicago Center
Sat 09:03:46 PM 40.8242 -88.5281 59° Northeast 451 519 35,000  Level Chicago Center
Sat 09:04:47 PM 40.8872 -88.3872 59° Northeast 448 516 35,000  Level Chicago Center
Sat 09:05:48 PM 40.9481 -88.2450 60° Northeast 448 516 35,000  Level Chicago Center
Sat 09:06:50 PM 41.0217 -88.0717 61° Northeast 457 526 35,000  Level Chicago Center
Sat 09:07:51 PM 41.0844 -87.9289 60° Northeast 457 526 35,000  Level Chicago Center
Sat 09:08:53 PM 41.1453 -87.7881 60° Northeast 450 518 35,000 -537 Level Chicago Center
Sat 09:09:54 PM 41.2078 -87.6450 60° Northeast 454 522 33,900 -976 Descending Chicago Center
Sat 09:10:56 PM 41.2708 -87.4994 60° Northeast 459 528 33,000 -439 Descending Chicago Center
Sat 09:11:57 PM 41.3436 -87.3294 60° Northeast 443 510 33,000  Level Chicago Center
Sat 09:12:58 PM 41.4036 -87.1886 60° Northeast 443 510 33,000  Level Chicago Center
Sat 09:14:00 PM 41.4619 -87.0492 61° Northeast 438 504 33,000 -732 Level Chicago Center
Sat 09:15:01 PM 41.5225 -86.9094 60° Northeast 439 505 31,500 -1,902 Descending Chicago Center
Sat 09:16:03 PM 41.5839 -86.7639 61° Northeast 452 520 29,100 -2,439 Descending Chicago Center
Sat 09:17:04 PM 41.6472 -86.6133 61° Northeast 456 525 26,500 -2,459 Descending Chicago Center
Sat 09:18:05 PM 41.7100 -86.4636 61° Northeast 461 531 24,100 -2,000 Descending Chicago Center
Sat 09:19:07 PM 41.7694 -86.3172 61° Northeast 452 520 22,400 -1,512 Descending Chicago Center
Sat 09:20:08 PM 41.8061 -86.1647 72° East 435 501 21,000 -934 Descending Chicago Center
Sat 09:21:09 PM 41.8358 -85.9853 77° East 414 476 20,500 -780 Descending Chicago Center
Sat 09:22:11 PM 41.8642 -85.8292 76° East 425 489 19,400 -732 Descending Chicago Center
Sat 09:23:12 PM 41.8939 -85.6778 75° East 420 483 19,000 -197 Descending Chicago Center
Sat 09:24:13 PM 41.9150 -85.5250 79° East 418 481 19,000  Level Chicago Center
Sat 09:25:15 PM 41.9081 -85.3700 93° East 414 476 19,000  Level Chicago Center
Sat 09:26:16 PM 41.8978 -85.2150 95° East 415 478 19,000  Level Chicago Center
Sat 09:27:17 PM 41.8894 -85.0631 94° East 409 471 19,000  Level Chicago Center
Sat 09:28:18 PM 41.8814 -84.9119 94° East 408 470 19,000  Level Chicago Center
Sat 09:29:20 PM 41.8714 -84.7528 95° East 427 491 19,000  Level Chicago Center
Sat 09:30:21 PM 41.8625 -84.5919 94° East 429 494 19,000 -912 Level Chicago Center
Sat 09:31:25 PM 41.8503 -84.4108 95° East 410 472 17,100 -2,061 Descending Cleveland Center
Sat 09:32:32 PM 41.8408 -84.2542 95° East 379 436 14,500 -2,031 Descending Cleveland Center
Sat 09:33:35 PM 41.8283 -84.1197 97° East 372 428 12,700 -1,128 Descending Cleveland Center
Sat 09:34:45 PM 41.8614 -83.9847 72° East 315 362 12,000 -350 Descending Cleveland Center
Sat 09:35:35 PM 41.8992 -83.9058 57° Northeast 300 345 12,000  Level Cleveland Center
Sat 09:36:29 PM 41.9664 -83.8200 43° Northeast 370 426 12,000  Level Cleveland Center
Sat 09:37:35 PM 42.0444 -83.7094 46° Northeast 353 406 12,000  Level Cleveland Center
Sat 09:38:35 PM 42.1181 -83.6094 45° Northeast 363 418 12,000 -259 Level Cleveland Center
Sat 09:39:31 PM 42.1889 -83.5369 37° Northeast 291 335 11,500 -1,603 Descending Cleveland Center
Sat 09:40:31 PM 42.2631 -83.4872 26° Northeast 289 333 8,900 -2,727 Descending Cleveland Center
Sat 09:41:32 PM 42.3308 -83.4397 27° Northeast 281 323 6,000 -2,713 Descending Cleveland Center
Sat 09:42:26 PM 42.3639 -83.3653 59° Northeast 273 314 3,700 -1,617 Descending Cleveland Center
Sat 09:43:27 PM 42.3300 -83.2992 125° Southeast 179 206 2,900 -761 Descending Cleveland Center
Sat 09:44:40 PM 42.2878 -83.3225 202° Southwest 123 142 2,000 -740 Descending Cleveland Center

Login

Don't have an account? Register now (free) for customized features, flight alerts, and more!